Weather at Charles L Kelly Army Heliport

Public forecast

Using degrees Fahrenheit for public forecast. Weather courtesy of forecast.io.

Closest aviation weather report (METAR) to Charles L Kelly Army Heliport

Closest report is San Antonio International Airport, 4.9 nm (9.0 km) NW.

2024/06/19 07:51 (retrieved 28 minutes ago)

KSAT 190751Z 09009KT 10SM BKN017 OVC035 25/22 A2989 RMK AO2 SLP101 T02500217

Closest aviation forecast (TAF) to Charles L Kelly Army Heliport

Closest forecast is San Antonio International Airport, 4.9 nm (9.0 km) NW.

2024/06/19 06:22 (retrieved 2 hours ago)

TAF KSAT 190520Z 1906/2012 10012KT P6SM BKN025 FM190800 06011KT P6SM OVC012 FM191100 07011KT P6SM VCSH OVC012 FM191500 05015G25KT 5SM SHRA BR OVC007 FM200400 04015G25KT 4SM BR VCSH OVC005 FM200600 05015KT 2SM BR OVC004